<?xml version="1.0" encoding="utf-8" standalone="yes"?>
<gpx version="1.1" creator="GPS Visualizer https://www.gpsvisualizer.com/" xmlns="http://www.topografix.com/GPX/1/1" xmlns:xsi="http://www.w3.org/2001/XMLSchema-instance" xsi:schemaLocation="http://www.topografix.com/GPX/1/1 http://www.topografix.com/GPX/1/1/gpx.xsd http://www.garmin.com/xmlschemas/TrackPointExtension/v2 http://www.garmin.com/xmlschemas/TrackPointExtensionv2.xsd http://www.garmin.com/xmlschemas/GpxExtensions/v3 http://www.garmin.com/xmlschemas/GpxExtensionsv3.xsd" xmlns:gpxtpx="http://www.garmin.com/xmlschemas/TrackPointExtension/v2" xmlns:gpxx="http://www.garmin.com/xmlschemas/GpxExtensions/v3">
<wpt lat="43.176617" lon="-2.351">
  <ele>506.0</ele>
  <name>X01</name>
</wpt>
<wpt lat="43.178734" lon="-2.35635">
  <ele>562.1</ele>
  <name>X02</name>
</wpt>
<wpt lat="43.178684" lon="-2.362083">
  <ele>620.9</ele>
  <name>X03</name>
</wpt>
<wpt lat="43.171933" lon="-2.369083">
  <ele>723.0</ele>
  <name>POLPOL</name>
  <desc>Iturria</desc>
</wpt>
<wpt lat="43.17645" lon="-2.367433">
  <ele>890.0</ele>
  <name>IRUKURUT</name>
</wpt>
<wpt lat="43.182967" lon="-2.366967">
  <ele>719.0</ele>
  <name>X04</name>
</wpt>
<wpt lat="43.184794" lon="-2.365932">
  <ele>618.1</ele>
  <name>X05</name>
</wpt>
<wpt lat="43.177617" lon="-2.342133">
  <ele>321.0</ele>
  <name>URRATEGI</name>
</wpt>
<trk>
  <name>Urrategi-Irukurutzeta</name>
  <trkseg>
    <trkpt lat="43.177184" lon="-2.343183">
      <ele>338.023189183</ele>
      <time>2004-02-01T08:34:29Z</time>
    </trkpt>
    <trkpt lat="43.17705" lon="-2.344917">
      <ele>342.899989027</ele>
      <time>2004-02-01T08:36:05Z</time>
    </trkpt>
    <trkpt lat="43.17615" lon="-2.344533">
      <ele>351.129588764</ele>
      <time>2004-02-01T08:37:26Z</time>
    </trkpt>
    <trkpt lat="43.175217" lon="-2.344483">
      <ele>366.064788286</ele>
      <time>2004-02-01T08:38:42Z</time>
    </trkpt>
    <trkpt lat="43.1746" lon="-2.34425">
      <ele>366.979188257</ele>
      <time>2004-02-01T08:39:38Z</time>
    </trkpt>
    <trkpt lat="43.173834" lon="-2.343767">
      <ele>370.94158813</ele>
      <time>2004-02-01T08:40:50Z</time>
    </trkpt>
    <trkpt lat="43.17335" lon="-2.343533">
      <ele>378.866387876</ele>
      <time>2004-02-01T08:41:31Z</time>
    </trkpt>
    <trkpt lat="43.1739" lon="-2.344417">
      <ele>395.020787359</ele>
      <time>2004-02-01T08:42:40Z</time>
    </trkpt>
    <trkpt lat="43.174017" lon="-2.34515">
      <ele>396.849587301</ele>
      <time>2004-02-01T08:43:40Z</time>
    </trkpt>
    <trkpt lat="43.174434" lon="-2.345883">
      <ele>405.993587008</ele>
      <time>2004-02-01T08:44:42Z</time>
    </trkpt>
    <trkpt lat="43.1749" lon="-2.347">
      <ele>434.949586082</ele>
      <time>2004-02-01T08:45:56Z</time>
    </trkpt>
    <trkpt lat="43.175334" lon="-2.347867">
      <ele>452.932785506</ele>
      <time>2004-02-01T08:47:26Z</time>
    </trkpt>
    <trkpt lat="43.175984" lon="-2.349216">
      <ele>477.926384706</ele>
      <time>2004-02-01T08:49:15Z</time>
    </trkpt>
    <trkpt lat="43.175834" lon="-2.34985">
      <ele>488.899184355</ele>
      <time>2004-02-01T08:50:07Z</time>
    </trkpt>
    <trkpt lat="43.176467" lon="-2.350483">
      <ele>498.957584033</ele>
      <time>2004-02-01T08:51:22Z</time>
    </trkpt>
    <trkpt lat="43.17665" lon="-2.351016">
      <ele>515.111983516</ele>
      <time>2004-02-01T08:52:44Z</time>
    </trkpt>
    <trkpt lat="43.176734" lon="-2.352266">
      <ele>533.095182941</ele>
      <time>2004-02-01T08:54:34Z</time>
    </trkpt>
    <trkpt lat="43.177367" lon="-2.3538">
      <ele>549.859182405</ele>
      <time>2004-02-01T08:56:38Z</time>
    </trkpt>
    <trkpt lat="43.177884" lon="-2.354283">
      <ele>563.879981956</ele>
      <time>2004-02-01T08:57:37Z</time>
    </trkpt>
    <trkpt lat="43.1783" lon="-2.3549">
      <ele>569.975981761</ele>
      <time>2004-02-01T08:58:32Z</time>
    </trkpt>
    <trkpt lat="43.178567" lon="-2.3558">
      <ele>555.955182209</ele>
      <time>2004-02-01T08:59:32Z</time>
    </trkpt>
    <trkpt lat="43.178684" lon="-2.3565">
      <ele>570.890381732</ele>
      <time>2004-02-01T09:00:50Z</time>
    </trkpt>
    <trkpt lat="43.178684" lon="-2.357283">
      <ele>565.099181917</ele>
      <time>2004-02-01T09:01:46Z</time>
    </trkpt>
    <trkpt lat="43.178917" lon="-2.357966">
      <ele>580.94878141</ele>
      <time>2004-02-01T09:02:39Z</time>
    </trkpt>
    <trkpt lat="43.17925" lon="-2.357533">
      <ele>601.979980737</ele>
      <time>2004-02-01T09:03:44Z</time>
    </trkpt>
    <trkpt lat="43.1792" lon="-2.358733">
      <ele>613.867180356</ele>
      <time>2004-02-01T09:05:02Z</time>
    </trkpt>
    <trkpt lat="43.178917" lon="-2.359483">
      <ele>623.925580034</ele>
      <time>2004-02-01T09:05:57Z</time>
    </trkpt>
    <trkpt lat="43.178834" lon="-2.360083">
      <ele>630.021579839</ele>
      <time>2004-02-01T09:07:04Z</time>
    </trkpt>
    <trkpt lat="43.178817" lon="-2.36125">
      <ele>619.963180161</ele>
      <time>2004-02-01T09:08:14Z</time>
    </trkpt>
    <trkpt lat="43.1788" lon="-2.3618">
      <ele>615.086380317</ele>
      <time>2004-02-01T09:08:54Z</time>
    </trkpt>
    <trkpt lat="43.178284" lon="-2.362833">
      <ele>633.983979713</ele>
      <time>2004-02-01T09:10:41Z</time>
    </trkpt>
    <trkpt lat="43.1775" lon="-2.362983">
      <ele>672.998378464</ele>
      <time>2004-02-01T09:11:48Z</time>
    </trkpt>
    <trkpt lat="43.176567" lon="-2.363183">
      <ele>672.998378464</ele>
      <time>2004-02-01T09:12:56Z</time>
    </trkpt>
    <trkpt lat="43.176067" lon="-2.363266">
      <ele>687.019178015</ele>
      <time>2004-02-01T09:13:35Z</time>
    </trkpt>
    <trkpt lat="43.1755" lon="-2.363766">
      <ele>697.991977664</ele>
      <time>2004-02-01T09:14:25Z</time>
    </trkpt>
    <trkpt lat="43.174734" lon="-2.363783">
      <ele>702.868777508</ele>
      <time>2004-02-01T09:15:24Z</time>
    </trkpt>
    <trkpt lat="43.17405" lon="-2.363433">
      <ele>713.841577157</ele>
      <time>2004-02-01T09:16:20Z</time>
    </trkpt>
    <trkpt lat="43.173334" lon="-2.363266">
      <ele>712.927177186</ele>
      <time>2004-02-01T09:17:10Z</time>
    </trkpt>
    <trkpt lat="43.172951" lon="-2.363">
      <ele>729.99597664</ele>
      <time>2004-02-01T09:18:07Z</time>
    </trkpt>
    <trkpt lat="43.172316" lon="-2.36335">
      <ele>713.841577157</ele>
      <time>2004-02-01T09:19:08Z</time>
    </trkpt>
    <trkpt lat="43.172216" lon="-2.364133">
      <ele>695.858377733</ele>
      <time>2004-02-01T09:19:58Z</time>
    </trkpt>
    <trkpt lat="43.171883" lon="-2.3646">
      <ele>658.063178942</ele>
      <time>2004-02-01T09:20:47Z</time>
    </trkpt>
    <trkpt lat="43.171466" lon="-2.36535">
      <ele>661.111178844</ele>
      <time>2004-02-01T09:21:49Z</time>
    </trkpt>
    <trkpt lat="43.1714" lon="-2.3662">
      <ele>683.056778142</ele>
      <time>2004-02-01T09:22:49Z</time>
    </trkpt>
    <trkpt lat="43.171583" lon="-2.367133">
      <ele>716.88957706</ele>
      <time>2004-02-01T09:24:16Z</time>
    </trkpt>
    <trkpt lat="43.1718" lon="-2.367716">
      <ele>719.023176991</ele>
      <time>2004-02-01T09:24:55Z</time>
    </trkpt>
    <trkpt lat="43.171933" lon="-2.369166">
      <ele>722.071176894</ele>
      <time>2004-02-01T09:27:00Z</time>
    </trkpt>
    <trkpt lat="43.171216" lon="-2.3697">
      <ele>730.910376611</ele>
      <time>2004-02-01T09:28:13Z</time>
    </trkpt>
    <trkpt lat="43.171183" lon="-2.370716">
      <ele>726.947976738</ele>
      <time>2004-02-01T09:29:19Z</time>
    </trkpt>
    <trkpt lat="43.170666" lon="-2.37185">
      <ele>726.033576767</ele>
      <time>2004-02-01T09:30:26Z</time>
    </trkpt>
    <trkpt lat="43.170583" lon="-2.372633">
      <ele>709.879177284</ele>
      <time>2004-02-01T09:31:17Z</time>
    </trkpt>
    <trkpt lat="43.169783" lon="-2.373283">
      <ele>669.035978591</ele>
      <time>2004-02-01T09:32:30Z</time>
    </trkpt>
    <trkpt lat="43.169433" lon="-2.37375">
      <ele>662.025578815</ele>
      <time>2004-02-01T09:33:09Z</time>
    </trkpt>
    <trkpt lat="43.168783" lon="-2.374216">
      <ele>641.908779459</ele>
      <time>2004-02-01T09:33:56Z</time>
    </trkpt>
    <trkpt lat="43.168416" lon="-2.37455">
      <ele>634.898379683</ele>
      <time>2004-02-01T09:34:27Z</time>
    </trkpt>
    <trkpt lat="43.168183" lon="-2.375366">
      <ele>648.919179235</ele>
      <time>2004-02-01T09:35:16Z</time>
    </trkpt>
    <trkpt lat="43.1681" lon="-2.376116">
      <ele>677.875178308</ele>
      <time>2004-02-01T09:36:09Z</time>
    </trkpt>
    <trkpt lat="43.168133" lon="-2.376999">
      <ele>666.902378659</ele>
      <time>2004-02-01T09:37:05Z</time>
    </trkpt>
    <trkpt lat="43.168233" lon="-2.377949">
      <ele>752.855975909</ele>
      <time>2004-02-01T09:38:19Z</time>
    </trkpt>
    <trkpt lat="43.16875" lon="-2.37885">
      <ele>751.941575938</ele>
      <time>2004-02-01T09:39:22Z</time>
    </trkpt>
    <trkpt lat="43.169233" lon="-2.3793">
      <ele>747.064776094</ele>
      <time>2004-02-01T09:40:01Z</time>
    </trkpt>
    <trkpt lat="43.169733" lon="-2.3789">
      <ele>772.058375294</ele>
      <time>2004-02-01T09:41:47Z</time>
    </trkpt>
    <trkpt lat="43.170183" lon="-2.378234">
      <ele>779.06877507</ele>
      <time>2004-02-01T09:43:09Z</time>
    </trkpt>
    <trkpt lat="43.1707" lon="-2.377367">
      <ele>783.031174943</ele>
      <time>2004-02-01T09:44:12Z</time>
    </trkpt>
    <trkpt lat="43.171" lon="-2.376467">
      <ele>783.031174943</ele>
      <time>2004-02-01T09:45:05Z</time>
    </trkpt>
    <trkpt lat="43.171083" lon="-2.3757">
      <ele>786.993574816</ele>
      <time>2004-02-01T09:45:52Z</time>
    </trkpt>
    <trkpt lat="43.171533" lon="-2.37525">
      <ele>796.137574524</ele>
      <time>2004-02-01T09:46:57Z</time>
    </trkpt>
    <trkpt lat="43.172116" lon="-2.375067">
      <ele>790.041574719</ele>
      <time>2004-02-01T09:48:04Z</time>
    </trkpt>
    <trkpt lat="43.172616" lon="-2.374684">
      <ele>815.035173919</ele>
      <time>2004-02-01T09:48:58Z</time>
    </trkpt>
    <trkpt lat="43.173316" lon="-2.3743">
      <ele>832.103973373</ele>
      <time>2004-02-01T09:50:04Z</time>
    </trkpt>
    <trkpt lat="43.174416" lon="-2.373717">
      <ele>865.022372319</ele>
      <time>2004-02-01T09:52:12Z</time>
    </trkpt>
    <trkpt lat="43.175" lon="-2.373684">
      <ele>833.932773314</ele>
      <time>2004-02-01T09:53:11Z</time>
    </trkpt>
    <trkpt lat="43.17585" lon="-2.372584">
      <ele>857.097572573</ele>
      <time>2004-02-01T09:54:37Z</time>
    </trkpt>
    <trkpt lat="43.176216" lon="-2.371484">
      <ele>865.93677229</ele>
      <time>2004-02-01T09:55:38Z</time>
    </trkpt>
    <trkpt lat="43.176533" lon="-2.370484">
      <ele>878.1287719</ele>
      <time>2004-02-01T09:56:35Z</time>
    </trkpt>
    <trkpt lat="43.176484" lon="-2.3694">
      <ele>872.947172066</ele>
      <time>2004-02-01T09:57:25Z</time>
    </trkpt>
    <trkpt lat="43.176534" lon="-2.3676">
      <ele>886.967971617</ele>
      <time>2004-02-01T09:58:54Z</time>
    </trkpt>
    <trkpt lat="43.176917" lon="-2.3682">
      <ele>880.871971812</ele>
      <time>2004-02-01T10:02:02Z</time>
    </trkpt>
    <trkpt lat="43.177784" lon="-2.367667">
      <ele>861.059972446</ele>
      <time>2004-02-01T10:03:28Z</time>
    </trkpt>
    <trkpt lat="43.178384" lon="-2.3673">
      <ele>851.915972739</ele>
      <time>2004-02-01T10:04:14Z</time>
    </trkpt>
    <trkpt lat="43.178917" lon="-2.366417">
      <ele>834.847173285</ele>
      <time>2004-02-01T10:05:41Z</time>
    </trkpt>
    <trkpt lat="43.179384" lon="-2.366234">
      <ele>825.093573597</ele>
      <time>2004-02-01T10:06:28Z</time>
    </trkpt>
    <trkpt lat="43.180067" lon="-2.36645">
      <ele>793.089574621</ele>
      <time>2004-02-01T10:07:19Z</time>
    </trkpt>
    <trkpt lat="43.180717" lon="-2.366484">
      <ele>768.095975421</ele>
      <time>2004-02-01T10:08:15Z</time>
    </trkpt>
    <trkpt lat="43.181417" lon="-2.366534">
      <ele>748.893576035</ele>
      <time>2004-02-01T10:09:51Z</time>
    </trkpt>
    <trkpt lat="43.181934" lon="-2.366717">
      <ele>743.102376221</ele>
      <time>2004-02-01T10:11:25Z</time>
    </trkpt>
    <trkpt lat="43.182367" lon="-2.366934">
      <ele>736.091976445</ele>
      <time>2004-02-01T10:12:20Z</time>
    </trkpt>
    <trkpt lat="43.18275" lon="-2.367017">
      <ele>722.071176894</ele>
      <time>2004-02-01T10:13:14Z</time>
    </trkpt>
    <trkpt lat="43.183098" lon="-2.36727">
      <time>2004-02-02T15:02:29Z</time>
    </trkpt>
    <trkpt lat="43.183202" lon="-2.367616">
      <time>2004-02-02T15:02:58Z</time>
    </trkpt>
    <trkpt lat="43.183179" lon="-2.368138">
      <time>2004-02-02T15:02:59Z</time>
    </trkpt>
    <trkpt lat="43.183157" lon="-2.368798">
      <time>2004-02-02T15:03:01Z</time>
    </trkpt>
    <trkpt lat="43.183615" lon="-2.368689">
      <time>2004-02-02T15:03:02Z</time>
    </trkpt>
    <trkpt lat="43.184217" lon="-2.367259">
      <time>2004-02-02T15:03:03Z</time>
    </trkpt>
    <trkpt lat="43.18482" lon="-2.365932">
      <time>2004-02-02T15:03:05Z</time>
    </trkpt>
    <trkpt lat="43.184564" lon="-2.365553">
      <time>2004-02-02T15:03:17Z</time>
    </trkpt>
    <trkpt lat="43.184178" lon="-2.364828">
      <time>2004-02-02T15:03:18Z</time>
    </trkpt>
    <trkpt lat="43.183843" lon="-2.363963">
      <time>2004-02-02T15:03:20Z</time>
    </trkpt>
    <trkpt lat="43.183884" lon="-2.36233">
      <time>2004-02-02T15:03:22Z</time>
    </trkpt>
    <trkpt lat="43.183778" lon="-2.361463">
      <time>2004-02-02T15:03:23Z</time>
    </trkpt>
    <trkpt lat="43.183291" lon="-2.360773">
      <time>2004-02-02T15:03:24Z</time>
    </trkpt>
    <trkpt lat="43.182748" lon="-2.359285">
      <time>2004-02-02T15:03:26Z</time>
    </trkpt>
    <trkpt lat="43.182259" lon="-2.358109">
      <time>2004-02-02T15:03:28Z</time>
    </trkpt>
    <trkpt lat="43.181871" lon="-2.357071">
      <time>2004-02-02T15:03:30Z</time>
    </trkpt>
    <trkpt lat="43.181126" lon="-2.355655">
      <time>2004-02-02T15:03:33Z</time>
    </trkpt>
    <trkpt lat="43.181536" lon="-2.356311">
      <time>2004-02-02T15:03:36Z</time>
    </trkpt>
    <trkpt lat="43.180489" lon="-2.355453">
      <time>2004-02-02T15:03:50Z</time>
    </trkpt>
    <trkpt lat="43.180181" lon="-2.35504">
      <time>2004-02-02T15:03:52Z</time>
    </trkpt>
    <trkpt lat="43.179697" lon="-2.354732">
      <time>2004-02-02T15:03:52Z</time>
    </trkpt>
    <trkpt lat="43.179209" lon="-2.354043">
      <time>2004-02-02T15:03:53Z</time>
    </trkpt>
    <trkpt lat="43.178772" lon="-2.353179">
      <time>2004-02-02T15:03:55Z</time>
    </trkpt>
    <trkpt lat="43.178362" lon="-2.352559">
      <time>2004-02-02T15:03:56Z</time>
    </trkpt>
    <trkpt lat="43.177875" lon="-2.351973">
      <time>2004-02-02T15:03:57Z</time>
    </trkpt>
    <trkpt lat="43.177389" lon="-2.351423">
      <time>2004-02-02T15:03:58Z</time>
    </trkpt>
    <trkpt lat="43.176981" lon="-2.351219">
      <time>2004-02-02T15:04:15Z</time>
    </trkpt>
  </trkseg>
</trk>
</gpx>
